Time;durP1;ratioP1;P1;durP2;ratioP2;P2;SDS_P1;SDS_P2;PMS_P1;PMS_P2;Temp;Humidity;BMP_temperature;BMP_pressure;BME280_temperature;BME280_humidity;BME280_pressure;Samples;Min_cycle;Max_cycle;Signal;HPM_P1;HPM_P2
2023/04/01 00:00:29;;;;;;;13.60;8.98;;;10.40;99.90;;;;;;5101124;28;20044;-85
2023/04/01 00:02:55;;;;;;;10.57;8.30;;;10.40;99.90;;;;;;5102255;28;20055;-85
2023/04/01 00:05:21;;;;;;;12.27;8.48;;;10.40;99.90;;;;;;5101073;28;20030;-85
2023/04/01 00:07:46;;;;;;;10.95;8.13;;;10.40;99.90;;;;;;5110455;28;20491;-85
2023/04/01 00:10:13;;;;;;;11.25;8.30;;;10.40;99.90;;;;;;5106690;28;20449;-85
2023/04/01 00:12:39;;;;;;;14.05;8.85;;;10.40;99.90;;;;;;5107853;28;20046;-85
2023/04/01 00:15:08;;;;;;;10.60;8.07;;;10.40;99.90;;;;;;5107744;28;20054;-85
2023/04/01 00:17:33;;;;;;;11.73;8.32;;;10.40;99.90;;;;;;5108742;28;20061;-85
2023/04/01 00:20:00;;;;;;;11.18;8.05;;;10.40;99.90;;;;;;5119917;28;20048;-85
2023/04/01 00:22:26;;;;;;;11.38;7.95;;;10.40;99.90;;;;;;5118278;28;20047;-85
2023/04/01 00:24:53;;;;;;;11.48;7.18;;;10.40;99.90;;;;;;5111501;28;20036;-85
2023/04/01 00:27:18;;;;;;;9.98;7.00;;;10.40;99.90;;;;;;5107377;28;20066;-85
2023/04/01 00:29:46;;;;;;;8.75;6.78;;;10.40;99.90;;;;;;5105901;28;20476;-84
2023/04/01 00:32:12;;;;;;;9.70;6.97;;;10.40;99.90;;;;;;5095045;28;20090;-85
2023/04/01 00:34:39;;;;;;;10.13;7.25;;;10.40;99.90;;;;;;5102317;28;20037;-85
2023/04/01 00:37:06;;;;;;;9.93;7.15;;;10.40;99.90;;;;;;5099316;28;20044;-83
2023/04/01 00:39:32;;;;;;;11.52;8.13;;;10.40;99.90;;;;;;5095939;28;20096;-85
2023/04/01 00:41:59;;;;;;;11.23;7.22;;;10.30;99.90;;;;;;5104552;28;20045;-83
2023/04/01 00:44:32;;;;;;;9.20;6.28;;;10.30;99.90;;;;;;5093192;28;20047;-83
2023/04/01 00:46:58;;;;;;;9.05;5.40;;;10.30;99.90;;;;;;5095106;28;20047;-83
2023/04/01 00:49:29;;;;;;;10.13;6.95;;;10.30;99.90;;;;;;5098081;28;20043;-84
2023/04/01 00:51:58;;;;;;;9.05;5.32;;;10.30;99.90;;;;;;5093859;28;20453;-83
2023/04/01 00:54:25;;;;;;;9.57;5.40;;;10.30;99.90;;;;;;5098034;28;20039;-84
2023/04/01 00:56:57;;;;;;;8.52;4.72;;;10.30;99.90;;;;;;5102207;28;20069;-84
2023/04/01 00:59:43;;;;;;;7.80;5.07;;;10.30;99.90;;;;;;5099145;28;20052;-85
2023/04/01 01:02:12;;;;;;;7.13;4.18;;;10.30;99.90;;;;;;5101565;28;20032;-84
2023/04/01 01:04:38;;;;;;;6.57;3.70;;;10.30;99.90;;;;;;5102779;28;20082;-84
2023/04/01 01:07:14;;;;;;;7.38;3.90;;;10.20;99.90;;;;;;5102595;28;20069;-84
2023/04/01 01:09:51;;;;;;;7.95;4.13;;;10.20;99.90;;;;;;5095362;28;20074;-85
2023/04/01 01:12:21;;;;;;;7.55;4.45;;;10.20;99.90;;;;;;5097900;28;20536;-85
2023/04/01 01:15:02;;;;;;;9.80;5.22;;;10.20;99.90;;;;;;5100794;28;20369;-85
2023/04/01 01:17:48;;;;;;;9.05;6.20;;;10.20;99.90;;;;;;5098393;28;20043;-84
2023/04/01 01:20:29;;;;;;;10.23;5.47;;;10.20;99.90;;;;;;5102270;28;20122;-85
2023/04/01 01:23:17;;;;;;;9.93;6.50;;;10.20;99.90;;;;;;5103348;28;20059;-85
2023/04/01 01:26:16;;;;;;;9.75;6.50;;;10.20;99.90;;;;;;5095073;28;20044;-85
2023/04/01 01:28:48;;;;;;;10.23;6.78;;;10.20;99.90;;;;;;5096681;28;20129;-85
2023/04/01 01:31:16;;;;;;;11.23;7.30;;;10.20;99.90;;;;;;5095529;28;20040;-85
2023/04/01 01:34:01;;;;;;;9.88;6.78;;;10.20;99.90;;;;;;5107245;28;20039;-84
2023/04/01 01:36:34;;;;;;;9.73;7.18;;;10.20;99.90;;;;;;5099270;28;20393;-85
2023/04/01 01:39:02;;;;;;;11.20;8.13;;;10.30;99.90;;;;;;5105652;28;20141;-85
2023/04/01 01:41:29;;;;;;;9.18;7.35;;;10.20;99.90;;;;;;5098607;28;20048;-84
2023/04/01 01:43:57;;;;;;;11.82;8.02;;;10.30;99.90;;;;;;5102349;28;20043;-84
2023/04/01 01:46:26;;;;;;;11.25;8.35;;;10.20;99.90;;;;;;5105843;28;20361;-85
2023/04/01 01:48:53;;;;;;;11.93;8.75;;;10.30;99.90;;;;;;5105488;28;20131;-85
2023/04/01 01:51:20;;;;;;;10.85;8.10;;;10.30;99.90;;;;;;5104864;28;20129;-85
2023/04/01 01:53:45;;;;;;;12.18;8.55;;;10.30;99.90;;;;;;5098562;28;20039;-84
2023/04/01 01:56:13;;;;;;;10.60;7.75;;;10.30;99.90;;;;;;5100523;28;20488;-84
2023/04/01 01:58:52;;;;;;;11.05;8.10;;;10.30;99.90;;;;;;5104839;27;20075;-85
2023/04/01 02:01:24;;;;;;;10.20;7.50;;;10.30;99.90;;;;;;5096703;28;20377;-84
2023/04/01 02:03:51;;;;;;;12.65;8.57;;;10.30;99.90;;;;;;5103547;28;20042;-84
2023/04/01 02:06:21;;;;;;;10.93;7.85;;;10.30;99.90;;;;;;5100106;28;20067;-86
2023/04/01 02:08:52;;;;;;;9.93;7.38;;;10.30;99.90;;;;;;5105411;28;20119;-84
2023/04/01 02:11:25;;;;;;;9.65;7.28;;;10.20;99.90;;;;;;5098649;28;20052;-84
2023/04/01 02:14:27;;;;;;;10.50;7.63;;;10.30;99.90;;;;;;5097784;28;20039;-85
2023/04/01 02:16:56;;;;;;;10.68;7.53;;;10.30;99.90;;;;;;5105185;28;20051;-85
2023/04/01 02:19:27;;;;;;;10.25;7.05;;;10.30;99.90;;;;;;5095300;28;20035;-85
2023/04/01 02:21:59;;;;;;;12.07;7.90;;;10.30;99.90;;;;;;5091250;28;20086;-85
2023/04/01 02:24:28;;;;;;;11.57;7.75;;;10.30;99.90;;;;;;5090244;28;20097;-85
2023/04/01 02:26:53;;;;;;;11.60;7.80;;;10.30;99.90;;;;;;5094177;28;20043;-85
2023/04/01 02:29:25;;;;;;;11.20;7.80;;;10.30;99.90;;;;;;5097243;28;20032;-85
2023/04/01 02:31:52;;;;;;;11.13;7.65;;;10.30;99.90;;;;;;5100672;28;20114;-85
2023/04/01 02:34:18;;;;;;;12.38;8.13;;;10.30;99.90;;;;;;5104102;28;20040;-86
2023/04/01 02:36:44;;;;;;;11.13;7.22;;;10.30;99.90;;;;;;5105110;28;20040;-85
2023/04/01 02:39:10;;;;;;;11.23;7.40;;;10.30;99.90;;;;;;5108537;28;20109;-85
2023/04/01 02:41:40;;;;;;;13.32;8.13;;;10.30;99.90;;;;;;5095763;28;20035;-85
2023/04/01 02:44:07;;;;;;;14.35;9.68;;;10.30;99.90;;;;;;5097726;28;20031;-85
2023/04/01 02:46:32;;;;;;;14.07;9.25;;;10.30;99.90;;;;;;5107966;28;20124;-84
2023/04/01 02:48:58;;;;;;;11.25;8.80;;;10.30;99.90;;;;;;5119446;28;20036;-85
2023/04/01 02:51:25;;;;;;;11.00;8.50;;;10.30;99.90;;;;;;5116823;28;20100;-84
2023/04/01 02:53:50;;;;;;;12.18;8.50;;;10.30;99.90;;;;;;5113295;28;20091;-85
2023/04/01 02:56:16;;;;;;;12.10;9.02;;;10.30;99.90;;;;;;5102503;28;20090;-85
2023/04/01 02:58:41;;;;;;;12.50;9.05;;;10.30;99.90;;;;;;5101643;28;20562;-85
2023/04/01 03:01:08;;;;;;;12.18;9.00;;;10.30;99.90;;;;;;5104062;28;20435;-85
2023/04/01 03:03:33;;;;;;;14.40;9.60;;;10.30;99.90;;;;;;5092154;28;20174;-85
2023/04/01 03:06:08;;;;;;;11.05;8.88;;;10.30;99.90;;;;;;5090942;28;20150;-84
2023/04/01 03:08:34;;;;;;;11.95;9.10;;;10.30;99.90;;;;;;5099738;28;20551;-84
2023/04/01 03:10:59;;;;;;;13.23;8.30;;;10.30;99.90;;;;;;5099621;28;20036;-84
2023/04/01 03:13:25;;;;;;;15.27;10.73;;;10.30;99.90;;;;;;5101331;28;20028;-85
2023/04/01 03:15:51;;;;;;;14.35;9.98;;;10.30;99.90;;;;;;5097598;28;20040;-85
2023/04/01 03:18:17;;;;;;;11.90;8.98;;;10.30;99.90;;;;;;5098542;28;20437;-85
2023/04/01 03:20:43;;;;;;;13.43;9.82;;;10.30;99.90;;;;;;5095689;28;20036;-85
2023/04/01 03:23:09;;;;;;;13.27;9.45;;;10.30;99.90;;;;;;5095496;28;20377;-85
2023/04/01 03:25:35;;;;;;;13.65;9.63;;;10.30;99.90;;;;;;5099000;28;20039;-84
2023/04/01 03:28:00;;;;;;;12.18;9.10;;;10.30;99.90;;;;;;5096828;28;20048;-85
2023/04/01 03:30:26;;;;;;;12.82;9.25;;;10.30;99.90;;;;;;5099499;28;20140;-85
2023/04/01 03:32:52;;;;;;;12.40;8.43;;;10.30;99.90;;;;;;5100475;28;20155;-85
2023/04/01 03:35:18;;;;;;;13.93;8.10;;;10.30;99.90;;;;;;5093235;28;20024;-84
2023/04/01 03:37:43;;;;;;;11.32;8.32;;;10.30;99.90;;;;;;5100392;28;20433;-85
2023/04/01 03:40:10;;;;;;;10.63;7.45;;;10.30;99.90;;;;;;5098694;28;20056;-85
2023/04/01 03:42:35;;;;;;;8.75;5.95;;;10.30;99.90;;;;;;5099742;28;20066;-85
2023/04/01 03:45:02;;;;;;;10.98;7.20;;;10.30;99.90;;;;;;5096645;28;20040;-84
2023/04/01 03:47:28;;;;;;;9.43;6.30;;;10.30;99.90;;;;;;5096329;28;20132;-84
2023/04/01 03:49:54;;;;;;;11.50;7.43;;;10.30;99.90;;;;;;5103053;28;20379;-85
2023/04/01 03:52:20;;;;;;;10.52;7.00;;;10.30;99.90;;;;;;5096571;28;20040;-85
2023/04/01 03:54:45;;;;;;;13.85;8.27;;;10.30;99.90;;;;;;5099383;28;20438;-85
2023/04/01 03:57:11;;;;;;;9.77;6.15;;;10.30;99.90;;;;;;5098719;28;20114;-85
2023/04/01 03:59:36;;;;;;;9.88;6.38;;;10.30;99.90;;;;;;5095410;28;20408;-85
2023/04/01 04:02:02;;;;;;;9.80;6.50;;;10.30;99.90;;;;;;5102234;28;20061;-84
2023/04/01 04:04:28;;;;;;;10.13;6.60;;;10.30;99.90;;;;;;5101801;28;20055;-85
2023/04/01 04:06:54;;;;;;;9.18;6.40;;;10.30;99.90;;;;;;5094842;28;20450;-85
2023/04/01 04:09:20;;;;;;;9.43;6.40;;;10.30;99.90;;;;;;5100440;28;20043;-85
2023/04/01 04:11:46;;;;;;;10.50;6.82;;;10.30;99.90;;;;;;5099402;28;20028;-85
2023/04/01 04:14:11;;;;;;;10.00;6.80;;;10.30;99.90;;;;;;5099569;28;20047;-84
2023/04/01 04:16:37;;;;;;;11.90;7.75;;;10.30;99.90;;;;;;5101243;28;20059;-85
2023/04/01 04:19:03;;;;;;;10.55;6.80;;;10.30;99.90;;;;;;5110296;28;20122;-85
2023/04/01 04:21:29;;;;;;;8.75;6.28;;;10.30;99.90;;;;;;5097627;28;20062;-85
2023/04/01 04:23:55;;;;;;;9.95;6.78;;;10.30;99.90;;;;;;5091983;28;20516;-85
2023/04/01 04:26:21;;;;;;;10.50;7.57;;;10.30;99.90;;;;;;5101910;28;20074;-85
2023/04/01 04:28:46;;;;;;;9.82;7.18;;;10.40;99.90;;;;;;5085804;28;20066;-84
2023/04/01 04:31:17;;;;;;;12.10;7.72;;;10.30;99.90;;;;;;5099898;28;20040;-85
2023/04/01 04:33:43;;;;;;;14.45;9.20;;;10.30;99.90;;;;;;5096316;28;20103;-85
2023/04/01 04:36:08;;;;;;;9.43;7.07;;;10.30;99.90;;;;;;5103863;28;20548;-85
2023/04/01 04:38:34;;;;;;;9.15;6.72;;;10.40;99.90;;;;;;5096633;28;20036;-85
2023/04/01 04:41:00;;;;;;;10.10;7.47;;;10.30;99.90;;;;;;5101898;28;20419;-85
2023/04/01 04:43:25;;;;;;;9.88;7.15;;;10.30;99.90;;;;;;5100495;28;20043;-85
2023/04/01 04:45:51;;;;;;;11.23;7.63;;;10.30;99.90;;;;;;5103051;28;20047;-85
2023/04/01 04:48:18;;;;;;;12.23;8.32;;;10.40;99.90;;;;;;5093009;28;20186;-86
2023/04/01 04:50:45;;;;;;;13.20;8.45;;;10.40;99.90;;;;;;5094885;28;20028;-85
2023/04/01 04:53:12;;;;;;;11.25;8.15;;;10.40;99.90;;;;;;5094187;28;20039;-85
2023/04/01 04:55:44;;;;;;;10.90;7.70;;;10.40;99.90;;;;;;5098059;28;20143;-86
2023/04/01 04:58:09;;;;;;;;;;;10.30;99.90;;;;;;5098988;28;20054;-88
2023/04/01 05:00:35;;;;;;;10.82;7.57;;;10.30;99.90;;;;;;5098390;28;20283;-88
2023/04/01 05:03:01;;;;;;;10.38;7.10;;;10.30;99.90;;;;;;5100334;28;20513;-88
2023/04/01 05:05:26;;;;;;;10.63;7.32;;;10.30;99.90;;;;;;5097572;28;20103;-91
2023/04/01 05:07:52;;;;;;;11.27;8.20;;;10.30;99.90;;;;;;5103901;28;20077;-87
2023/04/01 05:10:17;;;;;;;11.65;7.45;;;10.40;99.90;;;;;;5102569;28;20054;-87
2023/04/01 05:12:43;;;;;;;11.65;8.02;;;10.30;99.90;;;;;;5099345;28;20047;-87
2023/04/01 05:15:09;;;;;;;16.10;9.57;;;10.40;99.90;;;;;;5099337;28;20038;-88
2023/04/01 05:17:35;;;;;;;13.27;8.98;;;10.40;99.90;;;;;;5098095;28;20046;-87
2023/04/01 05:20:01;;;;;;;12.65;8.63;;;10.40;99.90;;;;;;5098996;28;20035;-88
2023/04/01 05:22:27;;;;;;;13.07;8.48;;;10.40;99.90;;;;;;5099194;28;20039;-87
2023/04/01 05:24:52;;;;;;;13.60;8.23;;;10.40;99.90;;;;;;5094430;28;20028;-88
2023/04/01 05:27:18;;;;;;;10.88;7.97;;;10.40;99.90;;;;;;5100471;28;20404;-88
2023/04/01 05:29:44;;;;;;;12.18;8.23;;;10.40;99.90;;;;;;5101705;28;20292;-88
2023/04/01 05:32:09;;;;;;;11.82;8.20;;;10.40;99.90;;;;;;5091564;28;20039;-87
2023/04/01 05:34:35;;;;;;;11.55;7.65;;;10.40;99.90;;;;;;5097752;28;20028;-86
2023/04/01 05:37:00;;;;;;;11.77;7.47;;;10.40;99.90;;;;;;5100567;28;20446;-89
2023/04/01 05:39:26;;;;;;;10.13;7.28;;;10.40;99.90;;;;;;5096894;28;20059;-90
2023/04/01 05:41:52;;;;;;;10.90;7.50;;;10.40;99.90;;;;;;5095901;28;20035;-93
2023/04/01 05:44:18;;;;;;;10.57;7.55;;;10.40;99.90;;;;;;5091596;27;20040;-88
2023/04/01 05:46:43;;;;;;;9.88;7.07;;;10.40;99.90;;;;;;5098414;28;20035;-89
2023/04/01 05:49:09;;;;;;;11.25;7.90;;;10.40;99.90;;;;;;5096585;28;20032;-88
2023/04/01 05:51:35;;;;;;;11.15;8.25;;;10.40;99.90;;;;;;5095948;28;20612;-88
2023/04/01 05:54:01;;;;;;;11.10;8.68;;;10.40;99.90;;;;;;5102880;28;20046;-90
2023/04/01 05:56:26;;;;;;;12.35;9.27;;;10.50;99.90;;;;;;5104303;28;20035;-88
2023/04/01 05:58:53;;;;;;;14.55;11.10;;;10.50;99.90;;;;;;5101045;28;20059;-96
2023/04/01 06:01:19;;;;;;;13.98;11.15;;;10.50;99.90;;;;;;5105403;28;20373;-89
2023/04/01 06:03:46;;;;;;;14.75;12.32;;;10.50;99.90;;;;;;5098874;28;20043;-89
2023/04/01 06:06:19;;;;;;;16.83;13.30;;;10.50;99.90;;;;;;5089902;28;20040;-90
2023/04/01 06:08:44;;;;;;;17.52;14.43;;;10.50;99.90;;;;;;5093242;28;20346;-87
2023/04/01 06:11:10;;;;;;;16.08;13.63;;;10.50;99.90;;;;;;5099169;28;20055;-87
2023/04/01 06:13:39;;;;;;;18.67;15.52;;;10.50;99.90;;;;;;5095340;28;20123;-88
2023/04/01 06:16:34;;;;;;;16.23;13.68;;;10.60;99.90;;;;;;5098099;28;20063;-88
2023/04/01 06:19:24;;;;;;;16.60;14.80;;;10.60;99.90;;;;;;5097442;28;20048;-90
2023/04/01 06:21:56;;;;;;;17.13;14.98;;;10.60;99.90;;;;;;5097372;28;20048;-85
2023/04/01 06:24:33;;;;;;;18.52;15.40;;;10.60;99.90;;;;;;5092872;28;20036;-86
2023/04/01 06:27:17;;;;;;;17.98;14.77;;;10.70;99.90;;;;;;5099948;28;20052;-90
2023/04/01 06:30:13;;;;;;;16.23;14.50;;;10.70;99.90;;;;;;5103881;28;20089;-88
2023/04/01 06:32:48;;;;;;;15.82;14.00;;;10.70;99.90;;;;;;5100503;28;20042;-87
2023/04/01 06:35:59;;;;;;;15.05;13.45;;;10.70;99.90;;;;;;5103762;28;20744;-88
2023/04/01 06:38:39;;;;;;;13.95;12.45;;;10.70;99.90;;;;;;5109649;28;20068;-87
2023/04/01 06:41:23;;;;;;;14.32;11.85;;;10.70;99.90;;;;;;5125039;28;20115;-86
2023/04/01 06:43:57;;;;;;;11.77;9.43;;;10.70;99.90;;;;;;5119722;28;20024;-85
2023/04/01 06:46:47;;;;;;;12.68;10.32;;;10.70;99.90;;;;;;5118421;28;20059;-84
2023/04/01 06:49:40;;;;;;;13.45;10.02;;;10.80;99.90;;;;;;5122609;28;20050;-86
2023/04/01 06:52:30;;;;;;;12.20;9.35;;;10.80;99.90;;;;;;5099639;28;20040;-85
2023/04/01 06:55:01;;;;;;;11.60;9.32;;;10.80;99.90;;;;;;5092608;28;20106;-86
2023/04/01 06:57:43;;;;;;;12.27;9.25;;;10.80;99.90;;;;;;5093313;28;20035;-85
2023/04/01 07:00:35;;;;;;;11.60;9.48;;;10.80;99.90;;;;;;5091183;28;20059;-83
2023/04/01 07:03:09;;;;;;;11.32;8.95;;;10.90;99.90;;;;;;5086838;28;20558;-86
2023/04/01 07:05:36;;;;;;;11.02;8.48;;;10.90;99.90;;;;;;5100215;28;20097;-86
2023/04/01 07:08:10;;;;;;;10.82;8.60;;;10.90;99.90;;;;;;5103071;28;20039;-82
2023/04/01 07:10:50;;;;;;;11.35;8.95;;;10.90;99.90;;;;;;5101527;28;20039;-84
2023/04/01 07:13:39;;;;;;;10.80;8.48;;;10.90;99.90;;;;;;5095677;28;20040;-84
2023/04/01 07:16:13;;;;;;;10.65;7.95;;;10.90;99.90;;;;;;5100214;28;20028;-84
2023/04/01 07:18:48;;;;;;;9.82;7.32;;;10.90;99.90;;;;;;5104574;28;20083;-83
2023/04/01 07:21:25;;;;;;;10.15;7.32;;;11.00;99.90;;;;;;5106713;28;20036;-85
2023/04/01 07:23:54;;;;;;;9.10;6.75;;;11.00;99.90;;;;;;5095691;28;20074;-83
2023/04/01 07:26:22;;;;;;;10.65;7.57;;;11.00;99.90;;;;;;5093925;28;20032;-82
2023/04/01 07:28:50;;;;;;;9.93;7.20;;;11.10;99.90;;;;;;5090144;28;20047;-85
2023/04/01 07:31:27;;;;;;;9.30;6.78;;;11.20;99.90;;;;;;5098418;28;20097;-87
2023/04/01 07:34:08;;;;;;;9.68;7.15;;;11.20;99.90;;;;;;5094644;28;20078;-82
2023/04/01 07:37:01;;;;;;;8.43;5.82;;;11.30;99.90;;;;;;5089089;28;20036;-85
2023/04/01 07:39:52;;;;;;;8.50;6.13;;;11.30;99.90;;;;;;5067090;28;20172;-84
2023/04/01 07:42:17;;;;;;;8.55;6.50;;;11.30;99.90;;;;;;5094448;28;20118;-84
2023/04/01 07:45:05;;;;;;;9.65;7.20;;;11.30;99.90;;;;;;5088902;28;20502;-85
2023/04/01 07:47:39;;;;;;;9.15;7.15;;;11.30;99.90;;;;;;5095098;28;20055;-85
2023/04/01 07:50:10;;;;;;;10.98;8.05;;;11.30;99.90;;;;;;5090618;28;20540;-86
2023/04/01 07:52:59;;;;;;;9.70;7.60;;;11.30;99.90;;;;;;5090914;28;20431;-86
2023/04/01 07:55:56;;;;;;;10.45;7.90;;;11.40;99.90;;;;;;5094086;28;20036;-83
2023/04/01 07:58:33;;;;;;;11.10;8.98;;;11.40;99.90;;;;;;5091102;28;20505;-84
2023/04/01 08:01:09;;;;;;;11.77;9.80;;;11.40;99.90;;;;;;5101175;28;20039;-83
2023/04/01 08:03:47;;;;;;;11.38;9.38;;;11.50;99.90;;;;;;5094190;28;20100;-84
2023/04/01 08:06:21;;;;;;;11.90;9.90;;;11.50;99.90;;;;;;5089724;28;20423;-82
2023/04/01 08:09:08;;;;;;;13.23;10.65;;;11.60;99.90;;;;;;5098350;28;20036;-84
2023/04/01 08:12:18;;;;;;;11.90;9.90;;;11.60;99.90;;;;;;5091719;28;20146;-83
2023/04/01 08:15:04;;;;;;;11.15;9.07;;;11.70;99.90;;;;;;5093263;28;20188;-83
2023/04/01 08:17:46;;;;;;;11.07;8.55;;;11.70;99.90;;;;;;5109192;28;20035;-83
2023/04/01 08:20:26;;;;;;;10.80;8.65;;;11.70;99.90;;;;;;5097781;28;20468;-83
2023/04/01 08:23:19;;;;;;;11.63;9.27;;;11.70;99.90;;;;;;5101041;28;20445;-82
2023/04/01 08:26:18;;;;;;;9.48;7.47;;;11.70;99.90;;;;;;5100350;28;20044;-82
2023/04/01 08:29:02;;;;;;;9.70;7.53;;;11.70;99.90;;;;;;5104003;28;20040;-82
2023/04/01 08:32:08;;;;;;;9.45;7.63;;;11.70;99.90;;;;;;5097409;28;20036;-84
2023/04/01 08:34:38;;;;;;;7.93;4.85;;;11.70;99.90;;;;;;5099936;28;20139;-83
2023/04/01 08:37:17;;;;;;;7.40;4.50;;;11.70;99.90;;;;;;5093943;28;20643;-83
2023/04/01 08:39:50;;;;;;;7.70;4.85;;;11.80;99.90;;;;;;5093617;28;20068;-84
2023/04/01 08:42:24;;;;;;;7.00;4.15;;;11.80;99.90;;;;;;5105072;28;20040;-83
2023/04/01 08:45:09;;;;;;;6.70;4.00;;;11.90;99.90;;;;;;5096053;28;20074;-82
2023/04/01 08:47:59;;;;;;;7.18;3.88;;;11.90;99.90;;;;;;5107478;28;20417;-82
2023/04/01 08:50:51;;;;;;;6.47;3.75;;;12.00;99.90;;;;;;5099280;28;20079;-84
2023/04/01 08:53:20;;;;;;;5.95;3.35;;;12.00;99.90;;;;;;5101601;28;20110;-83
2023/04/01 08:56:14;;;;;;;6.90;3.85;;;12.00;99.90;;;;;;5097671;28;20062;-82
2023/04/01 08:59:09;;;;;;;6.82;3.80;;;12.00;99.90;;;;;;5098639;28;20070;-83
2023/04/01 09:02:04;;;;;;;8.40;4.20;;;12.10;99.90;;;;;;5023535;28;20072;-83
2023/04/01 09:04:44;;;;;;;7.80;4.13;;;12.10;99.90;;;;;;5036759;28;20057;-82
2023/04/01 09:07:48;;;;;;;6.43;3.50;;;12.20;99.90;;;;;;5041913;28;20180;-82
2023/04/01 09:10:42;;;;;;;5.88;3.35;;;12.20;99.90;;;;;;5035960;28;20047;-82
2023/04/01 09:13:13;;;;;;;7.18;4.20;;;12.20;99.90;;;;;;5038669;28;20056;-84
2023/04/01 09:16:05;;;;;;;9.40;6.38;;;12.10;99.90;;;;;;5042272;28;20057;-83
2023/04/01 09:19:06;;;;;;;9.40;6.68;;;12.10;99.90;;;;;;5043366;28;20119;-83
2023/04/01 09:21:59;;;;;;;9.20;6.93;;;12.10;99.90;;;;;;5037106;28;20045;-84
2023/04/01 09:24:48;;;;;;;10.35;7.68;;;12.10;99.90;;;;;;5039453;28;20053;-82
2023/04/01 09:27:20;;;;;;;10.00;7.80;;;12.20;99.90;;;;;;5032148;28;20080;-84
2023/04/01 09:30:19;;;;;;;11.00;8.90;;;12.20;99.90;;;;;;5022327;28;20037;-83
2023/04/01 09:32:51;;;;;;;10.40;8.70;;;12.30;99.90;;;;;;5031212;28;20079;-84
2023/04/01 09:35:40;;;;;;;10.93;8.13;;;12.40;99.90;;;;;;5038348;28;20057;-84
2023/04/01 09:38:18;;;;;;;10.38;8.65;;;12.40;99.90;;;;;;5071210;28;20052;-83
2023/04/01 09:40:55;;;;;;;11.38;9.00;;;12.60;99.90;;;;;;5087750;28;20032;-82
2023/04/01 09:43:43;;;;;;;10.60;8.82;;;12.60;99.90;;;;;;5097360;28;20060;-83
2023/04/01 09:46:37;;;;;;;12.75;9.77;;;12.60;99.90;;;;;;5105590;28;20047;-83
2023/04/01 09:49:40;;;;;;;12.77;9.68;;;12.70;99.90;;;;;;5097198;28;20052;-83
2023/04/01 09:52:23;;;;;;;10.80;9.05;;;12.70;99.90;;;;;;5095202;28;20508;-83
2023/04/01 09:54:57;;;;;;;11.75;9.73;;;12.70;99.90;;;;;;5094651;28;20888;-83
2023/04/01 09:57:52;;;;;;;11.20;9.20;;;12.70;99.90;;;;;;5097264;28;20031;-83
2023/04/01 10:00:50;;;;;;;9.95;8.63;;;12.70;99.90;;;;;;5098539;28;20063;-83
2023/04/01 10:04:00;;;;;;;10.65;8.57;;;12.80;99.90;;;;;;5097923;28;20086;-82
2023/04/01 10:06:25;;;;;;;10.75;8.30;;;12.80;99.90;;;;;;5098569;28;20051;-83
2023/04/01 10:09:33;;;;;;;9.65;8.52;;;12.80;99.90;;;;;;5103337;28;20395;-83
2023/04/01 10:12:35;;;;;;;10.30;8.55;;;12.80;99.90;;;;;;5090569;28;20043;-83
2023/04/01 10:15:22;;;;;;;9.25;8.05;;;12.90;99.90;;;;;;5099432;28;20048;-82
2023/04/01 10:18:04;;;;;;;9.30;7.70;;;12.90;99.90;;;;;;5099480;28;20039;-82
2023/04/01 10:21:07;;;;;;;9.02;7.55;;;12.90;99.90;;;;;;5100565;28;20047;-83
2023/04/01 10:23:45;;;;;;;9.50;7.82;;;13.00;99.90;;;;;;5106062;28;20065;-83
2023/04/01 10:26:41;;;;;;;9.02;7.60;;;13.00;99.90;;;;;;5102032;28;20123;-83
2023/04/01 10:29:29;;;;;;;9.70;7.65;;;13.00;99.90;;;;;;5103424;28;20040;-83
2023/04/01 10:32:23;;;;;;;9.77;7.57;;;13.00;99.90;;;;;;5107452;28;20048;-83
2023/04/01 10:34:54;;;;;;;10.32;8.10;;;13.00;99.90;;;;;;5104552;28;20043;-83
2023/04/01 10:37:57;;;;;;;10.48;9.35;;;13.00;99.90;;;;;;5111968;28;20062;-82
2023/04/01 10:40:38;;;;;;;12.45;11.02;;;13.00;99.90;;;;;;5104915;28;20055;-83
2023/04/01 10:43:19;;;;;;;13.02;11.63;;;12.90;99.90;;;;;;5100011;28;20362;-83
2023/04/01 10:46:12;;;;;;;12.93;11.30;;;12.90;99.90;;;;;;5094346;27;20044;-83
2023/04/01 10:49:02;;;;;;;13.15;11.75;;;12.90;99.90;;;;;;5093019;28;20044;-83
2023/04/01 10:51:56;;;;;;;14.07;12.57;;;13.00;99.90;;;;;;5091469;28;20039;-82
2023/04/01 10:55:07;;;;;;;13.15;11.75;;;13.10;99.90;;;;;;5101028;28;20281;-85
2023/04/01 10:58:04;;;;;;;12.60;11.30;;;13.10;99.90;;;;;;5072577;28;20052;-84
2023/04/01 11:00:57;;;;;;;11.30;9.73;;;13.10;99.90;;;;;;5090511;28;20044;-82
2023/04/01 11:03:41;;;;;;;11.98;9.90;;;13.00;99.90;;;;;;5094457;28;20032;-83
2023/04/01 11:06:23;;;;;;;10.50;8.65;;;12.90;99.90;;;;;;5097499;28;20407;-82
2023/04/01 11:08:58;;;;;;;9.02;7.30;;;12.80;99.90;;;;;;5093023;28;20036;-83
2023/04/01 11:11:36;;;;;;;9.13;7.50;;;12.70;99.90;;;;;;5091718;28;20439;-82
2023/04/01 11:14:24;;;;;;;9.23;7.00;;;12.50;99.90;;;;;;5087028;28;20437;-83
2023/04/01 11:16:53;;;;;;;8.35;7.00;;;12.40;99.90;;;;;;5101207;28;20388;-83
2023/04/01 11:19:51;;;;;;;9.73;7.03;;;12.40;99.90;;;;;;5091998;28;20038;-82
2023/04/01 11:23:10;;;;;;;8.32;6.28;;;12.30;99.90;;;;;;5090113;28;20031;-83
2023/04/01 11:26:08;;;;;;;8.88;6.63;;;12.20;99.90;;;;;;5096236;28;20039;-82
2023/04/01 11:28:33;;;;;;;8.60;6.75;;;12.00;99.90;;;;;;5097062;28;20104;-82
2023/04/01 11:31:36;;;;;;;9.43;7.22;;;11.90;99.90;;;;;;5101008;28;20422;-83
2023/04/01 11:34:29;;;;;;;8.30;6.65;;;11.90;99.90;;;;;;5096603;28;20047;-83
2023/04/01 11:37:04;;;;;;;8.10;6.65;;;11.80;99.90;;;;;;5093864;28;20051;-83
2023/04/01 11:39:34;;;;;;;8.48;7.00;;;11.70;99.90;;;;;;5095843;28;20408;-82
2023/04/01 11:42:19;;;;;;;7.85;6.20;;;11.70;99.90;;;;;;5099377;28;20118;-82
2023/04/01 11:45:14;;;;;;;7.90;6.20;;;11.60;99.90;;;;;;5086682;28;20067;-83
2023/04/01 11:47:59;;;;;;;8.23;6.03;;;11.60;99.90;;;;;;5093412;28;20044;-82
2023/04/01 11:50:50;;;;;;;8.27;6.50;;;11.50;99.90;;;;;;5097070;28;20044;-82
2023/04/01 11:53:23;;;;;;;7.78;6.28;;;11.50;99.90;;;;;;5082418;28;20054;-82
2023/04/01 11:56:06;;;;;;;8.20;6.65;;;11.50;99.90;;;;;;5090919;28;20028;-82
2023/04/01 11:58:57;;;;;;;7.88;6.10;;;11.50;99.90;;;;;;5095742;28;20062;-82
2023/04/01 12:01:51;;;;;;;7.78;6.03;;;11.50;99.90;;;;;;5079331;28;20050;-82
2023/04/01 12:04:30;;;;;;;8.75;6.25;;;11.60;99.90;;;;;;5099891;28;20085;-84
2023/04/01 12:07:02;;;;;;;8.95;6.57;;;11.60;99.90;;;;;;5098057;28;20048;-82
2023/04/01 12:09:53;;;;;;;7.55;5.85;;;11.70;99.90;;;;;;5099210;28;20135;-82
2023/04/01 12:12:40;;;;;;;8.15;6.28;;;11.60;99.90;;;;;;5100338;28;20032;-83
2023/04/01 12:15:37;;;;;;;7.50;5.90;;;11.60;99.90;;;;;;5104340;28;20106;-83
2023/04/01 12:18:11;;;;;;;7.38;5.53;;;11.50;99.90;;;;;;5100401;28;20119;-83
2023/04/01 12:20:48;;;;;;;7.80;6.00;;;11.50;99.90;;;;;;5097454;28;20042;-83
2023/04/01 12:23:20;;;;;;;7.68;5.60;;;11.40;99.90;;;;;;5095786;28;20386;-85
2023/04/01 12:26:24;;;;;;;7.18;5.30;;;11.30;99.90;;;;;;5096825;28;20047;-83
2023/04/01 12:29:19;;;;;;;8.00;5.18;;;11.30;99.90;;;;;;5103903;28;20138;-82
2023/04/01 12:32:19;;;;;;;7.32;4.75;;;11.30;99.90;;;;;;5074338;28;20048;-82
2023/04/01 12:35:26;;;;;;;6.68;4.70;;;11.30;99.90;;;;;;5092678;28;20108;-83
2023/04/01 12:38:21;;;;;;;6.55;4.80;;;11.40;99.90;;;;;;5047831;28;20559;-83
2023/04/01 12:41:11;;;;;;;6.90;4.50;;;11.40;99.90;;;;;;5042862;28;20041;-84
2023/04/01 12:43:54;;;;;;;6.28;4.45;;;11.30;99.90;;;;;;5042241;28;20080;-83
2023/04/01 12:46:20;;;;;;;6.32;4.32;;;11.30;99.90;;;;;;5046517;28;20036;-84
2023/04/01 12:49:22;;;;;;;6.50;4.50;;;11.30;99.90;;;;;;5046704;28;20087;-83
2023/04/01 12:52:08;;;;;;;5.95;4.15;;;11.30;99.90;;;;;;5046860;28;20049;-83
2023/04/01 12:54:58;;;;;;;7.15;4.60;;;11.30;99.90;;;;;;5045986;28;20053;-83
2023/04/01 12:57:29;;;;;;;7.68;4.72;;;11.40;99.90;;;;;;5042480;28;20056;-82
2023/04/01 13:00:42;;;;;;;7.28;4.82;;;11.40;99.90;;;;;;5046944;28;20059;-84
2023/04/01 13:03:23;;;;;;;6.90;4.95;;;11.40;99.90;;;;;;5029010;28;20063;-83
2023/04/01 13:06:01;;;;;;;6.38;4.78;;;11.40;99.90;;;;;;5048695;28;20072;-83
2023/04/01 13:08:55;;;;;;;6.80;4.97;;;11.40;99.90;;;;;;5065184;28;20051;-83
2023/04/01 13:11:56;;;;;;;6.95;4.43;;;11.40;99.90;;;;;;5099871;28;20040;-83
2023/04/01 13:14:32;;;;;;;;;;;11.30;99.90;;;;;;5096090;28;20051;-83
2023/04/01 13:17:12;;;;;;;6.60;4.32;;;11.20;99.90;;;;;;5112221;28;19919;-83
2023/04/01 13:19:48;;;;;;;6.75;4.40;;;11.20;99.90;;;;;;5107764;28;20061;-82
2023/04/01 13:22:26;;;;;;;6.15;4.30;;;11.20;99.90;;;;;;5099517;28;20047;-84
2023/04/01 13:25:05;;;;;;;6.53;4.15;;;11.10;99.90;;;;;;5103785;28;20212;-83
2023/04/01 13:27:40;;;;;;;7.20;4.55;;;11.00;99.90;;;;;;5100240;28;20106;-83
2023/04/01 13:30:33;;;;;;;5.57;4.03;;;10.90;99.90;;;;;;5102273;28;20036;-83